createdAt,value
2022-08-31T00:01:47.244Z,96.13
2022-08-31T00:04:16.573Z,83.60
2022-08-31T00:06:46.017Z,84.43
2022-08-31T00:09:21.212Z,100.97
2022-08-31T00:11:50.547Z,91.93
2022-08-31T00:14:22.190Z,97.82
2022-08-31T00:16:51.947Z,98.82
2022-08-31T00:19:21.481Z,84.68
2022-08-31T00:21:50.949Z,92.57
2022-08-31T00:24:20.457Z,80.95
2022-08-31T00:26:49.898Z,80.75
2022-08-31T00:29:19.767Z,86.35
2022-08-31T00:31:50.644Z,83.03
2022-08-31T00:34:22.494Z,79.90
2022-08-31T00:36:52.292Z,86.88
2022-08-31T00:39:21.850Z,92.45
2022-08-31T00:41:54.049Z,85.35
2022-08-31T00:44:23.981Z,97.75
2022-08-31T00:46:54.583Z,88.50
2022-08-31T00:49:28.136Z,90.88
2022-08-31T00:52:00.652Z,98.43
2022-08-31T00:54:34.763Z,65.07
2022-08-31T00:57:05.915Z,91.68
2022-08-31T00:59:35.847Z,78.22
2022-08-31T01:02:06.746Z,87.25
2022-08-31T01:04:36.799Z,70.00
2022-08-31T01:07:09.005Z,91.22
2022-08-31T01:09:52.710Z,99.10
2022-08-31T01:12:26.600Z,86.80
2022-08-31T01:14:56.729Z,76.65
2022-08-31T01:17:28.289Z,91.47
2022-08-31T01:20:05.026Z,96.85
2022-08-31T01:22:44.814Z,82.85
2022-08-31T01:25:17.642Z,83.90
2022-08-31T01:27:47.432Z,89.85
2022-08-31T01:30:26.445Z,71.40
2022-08-31T01:32:55.677Z,87.68
2022-08-31T01:35:24.822Z,94.13
2022-08-31T01:37:54.779Z,95.47
2022-08-31T01:40:33.512Z,77.85
2022-08-31T01:43:02.860Z,76.50
2022-08-31T01:45:32.085Z,81.93
2022-08-31T01:48:03.246Z,97.45
2022-08-31T01:50:32.839Z,85.60
2022-08-31T01:53:02.123Z,69.55
2022-08-31T01:55:33.753Z,85.68
2022-08-31T01:58:03.695Z,88.65
2022-08-31T02:01:03.408Z,76.53
2022-08-31T02:03:53.212Z,74.60
2022-08-31T02:06:27.666Z,74.38
2022-08-31T02:08:57.330Z,85.65
2022-08-31T02:11:28.215Z,82.03
2022-08-31T02:13:57.440Z,84.93
2022-08-31T02:16:27.186Z,81.50
2022-08-31T02:18:56.786Z,76.65
2022-08-31T02:21:26.629Z,76.97
2022-08-31T02:23:56.358Z,70.53
2022-08-31T02:26:29.226Z,68.55
2022-08-31T02:28:58.509Z,65.85
2022-08-31T02:31:27.825Z,62.97
2022-08-31T02:34:02.156Z,69.85
2022-08-31T02:36:33.065Z,73.57
2022-08-31T02:39:07.151Z,65.15
2022-08-31T02:41:38.366Z,71.30
2022-08-31T02:44:07.809Z,66.85
2022-08-31T02:46:37.380Z,75.47
2022-08-31T02:49:38.055Z,57.17
2022-08-31T02:52:07.719Z,58.80
2022-08-31T02:54:36.942Z,69.50
2022-08-31T02:57:07.981Z,75.43
2022-08-31T02:59:37.538Z,71.72
2022-08-31T03:02:06.952Z,60.53
2022-08-31T03:04:39.918Z,66.75
2022-08-31T03:07:09.361Z,60.78
2022-08-31T03:09:38.539Z,64.93
2022-08-31T03:12:09.585Z,64.72
2022-08-31T03:14:39.954Z,54.60
2022-08-31T03:17:09.853Z,60.88
2022-08-31T03:19:39.812Z,57.85
2022-08-31T03:22:09.031Z,57.78
2022-08-31T03:24:38.292Z,61.80
2022-08-31T03:27:09.060Z,62.75
2022-08-31T03:29:38.388Z,52.55
2022-08-31T03:32:17.259Z,66.45
2022-08-31T03:34:49.487Z,54.92
2022-08-31T03:37:21.687Z,54.45
2022-08-31T03:39:52.291Z,53.85
2022-08-31T03:42:23.190Z,52.38
2022-08-31T03:44:53.321Z,61.45
2022-08-31T03:47:29.136Z,69.07
2022-08-31T03:50:00.581Z,62.28
2022-08-31T03:52:41.978Z,61.15
2022-08-31T03:55:16.194Z,60.70
2022-08-31T03:57:46.945Z,58.20
2022-08-31T04:02:57.471Z,46.97
2022-08-31T04:05:36.208Z,50.42
2022-08-31T04:08:43.662Z,50.15
2022-08-31T04:11:45.077Z,49.67
2022-08-31T04:14:36.735Z,60.75
2022-08-31T04:17:24.732Z,71.63
2022-08-31T04:20:02.088Z,58.28
2022-08-31T04:22:43.932Z,69.00
2022-08-31T04:25:31.509Z,50.25
2022-08-31T04:28:01.410Z,64.13
2022-08-31T04:30:34.800Z,63.53
2022-08-31T04:33:04.521Z,57.85
2022-08-31T04:35:33.721Z,69.43
2022-08-31T04:38:03.179Z,71.47
2022-08-31T04:40:34.092Z,68.80
2022-08-31T04:43:03.431Z,69.78
2022-08-31T04:45:34.227Z,67.72
2022-08-31T04:48:03.814Z,77.03
2022-08-31T04:50:33.195Z,71.38
2022-08-31T04:53:10.933Z,65.55
2022-08-31T04:55:42.341Z,63.53
2022-08-31T04:58:14.054Z,95.80
2022-08-31T05:00:45.641Z,75.72
2022-08-31T05:03:21.688Z,80.57
2022-08-31T05:05:53.673Z,64.07
2022-08-31T05:08:23.240Z,76.13
2022-08-31T05:10:52.639Z,91.13
2022-08-31T05:13:22.331Z,67.00
2022-08-31T05:15:55.231Z,66.50
2022-08-31T05:18:26.415Z,66.93
2022-08-31T05:20:59.791Z,78.38
2022-08-31T05:23:30.252Z,82.95
2022-08-31T05:25:59.531Z,70.65
2022-08-31T05:28:28.757Z,67.25
2022-08-31T05:30:59.726Z,67.72
2022-08-31T05:33:35.810Z,76.88
2022-08-31T05:36:05.973Z,62.28
2022-08-31T05:38:36.046Z,66.32
2022-08-31T05:41:07.889Z,60.58
2022-08-31T05:43:38.259Z,55.05
2022-08-31T05:46:12.283Z,60.05
2022-08-31T05:48:42.337Z,65.43
2022-08-31T05:51:20.493Z,58.72
2022-08-31T05:53:50.918Z,59.15
2022-08-31T05:56:25.183Z,68.82
2022-08-31T05:58:58.538Z,58.35
2022-08-31T06:01:34.187Z,62.13
2022-08-31T06:04:15.625Z,63.40
2022-08-31T06:06:46.294Z,52.88
2022-08-31T06:09:17.281Z,70.10
2022-08-31T06:11:47.989Z,74.30
2022-08-31T06:14:19.391Z,59.05
2022-08-31T06:16:51.923Z,73.43
2022-08-31T06:19:22.172Z,81.30
2022-08-31T06:21:53.024Z,64.32
2022-08-31T06:24:27.843Z,63.95
2022-08-31T06:26:59.519Z,70.43
2022-08-31T06:29:36.909Z,62.58
2022-08-31T06:32:11.121Z,72.85
2022-08-31T06:34:51.802Z,57.58
2022-08-31T06:37:59.726Z,49.05
2022-08-31T06:40:52.249Z,45.22
2022-08-31T06:43:54.092Z,48.80
2022-08-31T06:46:41.420Z,59.63
2022-08-31T06:49:22.862Z,51.88
2022-08-31T06:51:52.258Z,62.42
2022-08-31T06:54:30.009Z,60.97
2022-08-31T06:57:18.745Z,55.35
2022-08-31T07:00:09.738Z,81.30
2022-08-31T07:02:58.058Z,64.15
2022-08-31T07:05:29.761Z,66.45
2022-08-31T07:07:59.010Z,80.72
2022-08-31T07:10:28.323Z,77.07
2022-08-31T07:12:57.847Z,76.60
2022-08-31T07:15:27.148Z,68.90
2022-08-31T07:17:59.103Z,59.17
2022-08-31T07:20:35.360Z,46.60
2022-08-31T07:23:05.507Z,39.72
2022-08-31T07:25:41.280Z,38.13
2022-08-31T07:28:11.879Z,42.88
2022-08-31T07:30:46.323Z,46.47
2022-08-31T07:33:18.780Z,51.63
2022-08-31T07:35:57.873Z,63.40
2022-08-31T07:39:02.064Z,72.07
2022-08-31T07:41:50.651Z,71.88
2022-08-31T07:44:22.610Z,71.80
2022-08-31T07:46:55.445Z,78.93
2022-08-31T07:49:26.395Z,58.75
2022-08-31T07:52:21.116Z,59.60
2022-08-31T07:55:11.940Z,71.32
2022-08-31T07:58:03.575Z,63.53
2022-08-31T08:00:35.490Z,56.63
2022-08-31T08:03:08.380Z,65.28
2022-08-31T08:06:00.059Z,57.13
2022-08-31T08:08:57.050Z,68.72
2022-08-31T08:12:04.879Z,61.60
2022-08-31T08:14:54.898Z,70.38
2022-08-31T08:17:42.935Z,67.38
2022-08-31T08:20:15.430Z,75.03
2022-08-31T08:22:55.005Z,69.00
2022-08-31T08:25:37.244Z,85.30
2022-08-31T08:28:39.761Z,76.22
2022-08-31T08:31:16.674Z,87.72
2022-08-31T08:33:47.318Z,100.55
2022-08-31T08:36:19.318Z,123.68
2022-08-31T08:38:51.553Z,135.55
2022-08-31T08:41:27.135Z,119.55
2022-08-31T08:44:00.832Z,171.55
2022-08-31T08:46:38.957Z,124.43
2022-08-31T08:49:19.262Z,124.20
2022-08-31T08:51:55.588Z,147.32
2022-08-31T08:54:33.169Z,112.05
2022-08-31T08:57:14.213Z,145.57
2022-08-31T08:59:45.606Z,136.27
2022-08-31T09:02:20.189Z,175.65
2022-08-31T09:05:25.231Z,128.15
2022-08-31T09:08:29.402Z,130.40
2022-08-31T09:11:17.879Z,82.32
2022-08-31T09:14:06.572Z,84.93
2022-08-31T09:16:48.122Z,109.28
2022-08-31T09:19:20.684Z,120.70
2022-08-31T09:21:54.027Z,100.32
2022-08-31T09:24:26.930Z,148.95
2022-08-31T09:27:57.409Z,114.68
2022-08-31T09:30:52.714Z,63.23
2022-08-31T09:33:25.261Z,174.68
2022-08-31T09:38:35.112Z,76.18
2022-08-31T09:41:05.829Z,81.82
2022-08-31T09:43:38.811Z,73.90
2022-08-31T09:46:24.612Z,76.30
2022-08-31T09:48:58.466Z,49.35
2022-08-31T09:51:30.726Z,51.58
2022-08-31T09:54:35.412Z,42.78
2022-08-31T09:57:07.809Z,41.58
2022-08-31T09:59:44.246Z,38.67
2022-08-31T10:02:37.974Z,38.42
2022-08-31T10:05:33.031Z,36.42
2022-08-31T10:08:09.922Z,38.67
2022-08-31T10:10:42.597Z,38.08
2022-08-31T10:13:19.256Z,35.72
2022-08-31T10:15:58.082Z,36.75
2022-08-31T10:18:39.713Z,36.45
2022-08-31T10:21:14.943Z,40.28
2022-08-31T10:23:56.486Z,50.30
2022-08-31T10:26:36.599Z,48.53
2022-08-31T10:29:21.114Z,52.40
2022-08-31T10:31:58.408Z,40.53
2022-08-31T10:34:52.550Z,49.05
2022-08-31T10:37:31.616Z,86.63
2022-08-31T10:40:09.583Z,93.63
2022-08-31T10:42:46.068Z,147.40
2022-08-31T10:45:24.108Z,140.85
2022-08-31T10:47:57.393Z,146.80
2022-08-31T10:50:39.348Z,151.65
2022-08-31T10:53:22.597Z,114.10
2022-08-31T10:56:02.296Z,120.43
2022-08-31T10:58:42.548Z,114.50
2022-08-31T11:01:19.407Z,93.15
2022-08-31T11:04:20.041Z,106.00
2022-08-31T11:06:58.894Z,110.70
2022-08-31T11:09:36.006Z,105.32
2022-08-31T11:12:11.473Z,117.53
2022-08-31T11:15:14.664Z,115.45
2022-08-31T11:18:13.457Z,110.30
2022-08-31T11:21:10.985Z,132.98
2022-08-31T11:24:15.309Z,106.05
2022-08-31T11:26:58.926Z,100.43
2022-08-31T11:29:44.744Z,96.95
2022-08-31T11:32:23.331Z,122.53
2022-08-31T11:34:56.640Z,71.13
2022-08-31T11:37:56.099Z,70.65
2022-08-31T11:41:06.130Z,57.75
2022-08-31T11:43:52.242Z,76.72
2022-08-31T11:46:59.955Z,65.85
2022-08-31T11:49:46.818Z,80.45
2022-08-31T11:52:45.362Z,62.30
2022-08-31T11:55:28.849Z,67.80
2022-08-31T11:58:32.846Z,67.90
2022-08-31T12:01:28.437Z,71.22
2022-08-31T12:04:02.286Z,59.35
2022-08-31T12:07:04.287Z,68.47
2022-08-31T12:10:32.594Z,60.77
2022-08-31T12:13:39.154Z,58.95
2022-08-31T12:16:37.572Z,64.88
2022-08-31T12:19:59.039Z,71.65
2022-08-31T12:23:31.588Z,99.68
2022-08-31T12:26:34.238Z,91.60
2022-08-31T12:29:24.480Z,69.68
2022-08-31T12:32:27.037Z,91.40
2022-08-31T12:35:15.356Z,82.95
2022-08-31T12:37:45.161Z,91.88
2022-08-31T12:40:22.539Z,69.25
2022-08-31T12:43:03.955Z,88.75
2022-08-31T12:46:08.438Z,114.28
2022-08-31T12:49:02.776Z,84.68
2022-08-31T12:51:44.171Z,76.70
2022-08-31T12:55:03.516Z,105.97
2022-08-31T12:58:05.899Z,117.10
2022-08-31T13:00:39.595Z,88.10
2022-08-31T13:03:20.948Z,92.78
2022-08-31T13:06:06.855Z,98.45
2022-08-31T13:08:40.779Z,108.63
2022-08-31T13:11:25.733Z,113.22
2022-08-31T13:14:18.391Z,143.07
2022-08-31T13:16:53.029Z,113.95
2022-08-31T13:19:26.984Z,82.57
2022-08-31T13:22:00.483Z,95.05
2022-08-31T13:24:32.162Z,118.00
2022-08-31T13:27:12.445Z,93.25
2022-08-31T13:29:44.397Z,70.15
2022-08-31T13:32:33.008Z,51.63
2022-08-31T13:35:08.766Z,60.53
2022-08-31T13:37:43.583Z,59.03
2022-08-31T13:40:18.816Z,62.25
2022-08-31T13:42:56.551Z,80.57
2022-08-31T13:45:31.070Z,108.07
2022-08-31T13:48:10.159Z,83.82
2022-08-31T13:50:52.634Z,131.65
2022-08-31T13:53:41.845Z,130.63
2022-08-31T13:56:52.650Z,106.35
2022-08-31T13:59:36.241Z,81.90
2022-08-31T14:02:30.828Z,93.18
2022-08-31T14:05:10.108Z,81.13
2022-08-31T14:07:58.121Z,98.18
2022-08-31T14:10:32.069Z,84.25
2022-08-31T14:13:10.118Z,92.63
2022-08-31T14:15:42.128Z,109.90
2022-08-31T14:21:23.487Z,73.40
2022-08-31T14:24:01.692Z,87.32
2022-08-31T14:26:34.422Z,89.35
2022-08-31T14:29:10.659Z,88.50
2022-08-31T14:31:49.490Z,92.07
2022-08-31T14:34:26.521Z,88.70
2022-08-31T14:37:02.456Z,113.10
2022-08-31T14:39:35.288Z,76.43
2022-08-31T14:42:08.611Z,83.05
2022-08-31T14:44:42.265Z,76.97
2022-08-31T14:47:12.370Z,72.43
2022-08-31T14:49:45.596Z,79.85
2022-08-31T14:52:17.327Z,78.45
2022-08-31T14:54:48.025Z,72.03
2022-08-31T14:57:25.285Z,73.47
2022-08-31T14:59:59.635Z,77.97
2022-08-31T15:02:34.137Z,73.60
2022-08-31T15:05:06.584Z,70.80
2022-08-31T15:07:40.590Z,69.63
2022-08-31T15:10:12.989Z,68.95
2022-08-31T15:12:42.429Z,67.55
2022-08-31T15:15:12.377Z,81.55
2022-08-31T15:17:41.647Z,77.50
2022-08-31T15:20:12.618Z,67.30
2022-08-31T15:22:43.667Z,82.47
2022-08-31T15:25:14.156Z,124.40
2022-08-31T15:27:44.848Z,66.03
2022-08-31T15:30:20.213Z,65.07
2022-08-31T15:32:50.147Z,54.92
2022-08-31T15:35:24.562Z,57.50
2022-08-31T15:38:01.317Z,57.38
2022-08-31T15:40:38.609Z,53.53
2022-08-31T15:43:16.069Z,68.80
2022-08-31T15:45:45.545Z,61.38
2022-08-31T15:48:34.374Z,65.45
2022-08-31T15:51:03.647Z,56.17
2022-08-31T15:53:35.641Z,63.47
2022-08-31T15:56:08.902Z,60.83
2022-08-31T15:58:39.404Z,63.15
2022-08-31T16:01:12.714Z,82.68
2022-08-31T16:03:42.159Z,69.97
2022-08-31T16:06:12.283Z,77.68
2022-08-31T16:08:43.003Z,76.00
2022-08-31T16:11:13.536Z,93.22
2022-08-31T16:13:49.916Z,88.07
2022-08-31T16:16:20.445Z,86.60
2022-08-31T16:18:53.126Z,86.68
2022-08-31T16:21:22.798Z,91.65
2022-08-31T16:24:00.143Z,80.93
2022-08-31T16:26:31.504Z,88.18
2022-08-31T16:29:02.504Z,80.75
2022-08-31T16:31:32.424Z,83.00
2022-08-31T16:34:01.735Z,88.88
2022-08-31T16:36:31.785Z,80.00
2022-08-31T16:39:04.143Z,96.00
2022-08-31T16:44:21.610Z,80.35
2022-08-31T16:46:51.191Z,80.50
2022-08-31T16:49:37.329Z,111.18
2022-08-31T16:52:11.143Z,91.72
2022-08-31T16:54:45.082Z,79.85
2022-08-31T16:57:17.730Z,98.97
2022-08-31T17:02:19.209Z,80.25
2022-08-31T17:04:52.641Z,93.95
2022-08-31T17:07:24.059Z,88.88
2022-08-31T17:09:58.033Z,86.78
2022-08-31T17:12:27.606Z,86.38
2022-08-31T17:14:58.464Z,92.25
2022-08-31T17:17:28.312Z,105.95
2022-08-31T17:19:58.227Z,129.95
2022-08-31T17:22:32.901Z,90.88
2022-08-31T17:25:05.120Z,93.70
2022-08-31T17:27:36.619Z,99.57
2022-08-31T17:30:08.012Z,94.10
2022-08-31T17:32:44.470Z,92.80
2022-08-31T17:35:18.709Z,85.43
2022-08-31T17:37:50.963Z,92.13
2022-08-31T17:40:22.185Z,87.60
2022-08-31T17:42:55.033Z,88.22
2022-08-31T17:45:27.712Z,79.28
2022-08-31T17:47:56.990Z,82.63
2022-08-31T17:50:26.717Z,82.82
2022-08-31T17:52:55.916Z,77.18
2022-08-31T17:55:26.661Z,91.47
2022-08-31T17:57:55.853Z,80.13
2022-08-31T18:00:25.174Z,80.57
2022-08-31T18:02:54.464Z,83.03
2022-08-31T18:05:24.130Z,86.22
2022-08-31T18:07:53.316Z,78.68
2022-08-31T18:10:22.802Z,82.88
2022-08-31T18:12:53.355Z,87.43
2022-08-31T18:15:23.710Z,75.20
2022-08-31T18:17:52.918Z,75.03
2022-08-31T18:20:22.294Z,92.95
2022-08-31T18:22:52.482Z,86.43
2022-08-31T18:25:22.165Z,66.60
2022-08-31T18:27:52.752Z,66.65
2022-08-31T18:30:23.008Z,80.18
2022-08-31T18:32:52.657Z,63.30
2022-08-31T18:35:22.050Z,65.80
2022-08-31T18:37:51.697Z,81.07
2022-08-31T18:40:38.597Z,71.38
2022-08-31T18:43:26.693Z,105.43
2022-08-31T18:45:55.929Z,76.13
2022-08-31T18:48:27.501Z,61.85
2022-08-31T18:50:59.149Z,67.37
2022-08-31T18:53:30.427Z,94.20
2022-08-31T18:56:08.348Z,59.28
2022-08-31T18:58:40.089Z,83.03
2022-08-31T19:01:11.536Z,90.78
2022-08-31T19:03:41.759Z,71.60
2022-08-31T19:06:19.266Z,69.93
2022-08-31T19:08:49.201Z,73.43
2022-08-31T19:11:20.293Z,85.28
2022-08-31T19:13:51.564Z,91.43
2022-08-31T19:16:24.214Z,79.53
2022-08-31T19:18:56.755Z,105.55
2022-08-31T19:21:30.332Z,96.10
2022-08-31T19:24:02.370Z,88.25
2022-08-31T19:26:37.442Z,105.78
2022-08-31T19:29:11.498Z,104.38
2022-08-31T19:31:44.405Z,95.20
2022-08-31T19:34:17.009Z,105.57
2022-08-31T19:39:25.151Z,108.43
2022-08-31T19:41:57.131Z,98.18
2022-08-31T19:44:29.334Z,97.97
2022-08-31T19:47:25.490Z,127.10
2022-08-31T19:49:55.285Z,104.25
2022-08-31T19:52:25.939Z,108.43
2022-08-31T19:54:55.616Z,106.68
2022-08-31T19:57:24.921Z,113.50
2022-08-31T19:59:56.075Z,119.13
2022-08-31T20:02:26.368Z,128.30
2022-08-31T20:04:55.778Z,122.78
2022-08-31T20:07:24.986Z,110.82
2022-08-31T20:09:58.190Z,114.40
2022-08-31T20:12:27.621Z,115.90
2022-08-31T20:14:58.285Z,104.03
2022-08-31T20:17:30.222Z,114.80
2022-08-31T20:20:00.182Z,113.43
2022-08-31T20:22:29.911Z,112.35
2022-08-31T20:25:01.054Z,113.97
2022-08-31T20:27:31.107Z,107.85
2022-08-31T20:30:02.582Z,117.28
2022-08-31T20:32:34.827Z,114.25
2022-08-31T20:35:04.584Z,124.65
2022-08-31T20:37:33.884Z,126.55
2022-08-31T20:40:10.430Z,124.32
2022-08-31T20:42:39.930Z,116.43
2022-08-31T20:45:11.796Z,131.85
2022-08-31T20:47:58.644Z,139.50
2022-08-31T20:50:29.946Z,110.03
2022-08-31T20:52:59.312Z,115.70
2022-08-31T20:55:28.971Z,116.22
2022-08-31T20:58:00.808Z,127.53
2022-08-31T21:00:32.815Z,109.93
2022-08-31T21:03:03.012Z,122.32
2022-08-31T21:05:38.264Z,129.35
2022-08-31T21:08:08.877Z,133.63
2022-08-31T21:10:40.291Z,126.80
2022-08-31T21:13:13.679Z,123.78
2022-08-31T21:15:47.579Z,109.18
2022-08-31T21:18:19.255Z,112.72
2022-08-31T21:20:51.623Z,117.97
2022-08-31T21:23:21.132Z,117.38
2022-08-31T21:25:50.627Z,123.85
2022-08-31T21:28:20.506Z,117.65
2022-08-31T21:30:52.991Z,112.65
2022-08-31T21:36:01.694Z,81.00
2022-08-31T21:38:32.258Z,114.50
2022-08-31T21:41:02.759Z,120.25
2022-08-31T21:43:32.465Z,123.10
2022-08-31T21:46:04.576Z,130.68
2022-08-31T21:48:36.095Z,129.23
2022-08-31T21:51:13.132Z,138.52
2022-08-31T21:53:45.993Z,103.47
2022-08-31T21:56:15.607Z,132.90
2022-08-31T21:58:45.218Z,121.90
2022-08-31T22:01:18.708Z,126.45
2022-08-31T22:03:51.113Z,122.15
2022-08-31T22:06:26.714Z,136.70
2022-08-31T22:09:00.674Z,114.68
2022-08-31T22:11:37.366Z,124.57
2022-08-31T22:14:11.975Z,132.93
2022-08-31T22:16:45.039Z,118.97
2022-08-31T22:19:20.964Z,131.13
2022-08-31T22:21:53.414Z,125.82
2022-08-31T22:24:28.224Z,126.47
2022-08-31T22:27:03.281Z,120.90
2022-08-31T22:29:35.621Z,115.25
2022-08-31T22:32:10.790Z,125.85
2022-08-31T22:34:40.853Z,126.65
2022-08-31T22:37:11.574Z,122.85
2022-08-31T22:39:44.282Z,123.90
2022-08-31T22:42:16.859Z,135.52
2022-08-31T22:44:46.690Z,134.73
2022-08-31T22:47:19.579Z,131.85
2022-08-31T22:49:51.467Z,123.07
2022-08-31T22:52:22.651Z,121.00
2022-08-31T22:54:52.043Z,115.20
2022-08-31T22:57:21.342Z,103.97
2022-08-31T22:59:55.419Z,110.10
2022-08-31T23:02:28.865Z,125.43
2022-08-31T23:05:01.648Z,115.53
2022-08-31T23:07:33.961Z,124.03
2022-08-31T23:10:03.606Z,120.95
2022-08-31T23:12:32.807Z,117.32
2022-08-31T23:15:03.170Z,111.10
2022-08-31T23:17:34.968Z,112.13
2022-08-31T23:20:06.919Z,118.80
2022-08-31T23:22:36.141Z,112.95
2022-08-31T23:25:06.858Z,119.35
2022-08-31T23:27:36.140Z,113.57
2022-08-31T23:30:08.790Z,113.47
2022-08-31T23:32:39.523Z,142.10
2022-08-31T23:35:10.416Z,124.00
2022-08-31T23:37:39.628Z,117.85
2022-08-31T23:40:11.108Z,116.65
2022-08-31T23:42:42.026Z,120.38
2022-08-31T23:45:12.846Z,102.85
2022-08-31T23:47:43.498Z,108.32
2022-08-31T23:50:15.121Z,110.35
2022-08-31T23:52:46.004Z,102.13
2022-08-31T23:55:15.684Z,103.88
2022-08-31T23:57:47.668Z,100.88
